Terminal Aerodrome Forecast
Issued by NWS

Home | Current Version | Previous Version | Text Only | Print | Product List | Glossary On
Versions: 1 2 3 4 5 6 7 8 9 10 11 12 13 14
000
FTUS45 KRIW 191800 AAA
TAFCOD
TAF AMD
KCOD 191852Z 1919/2018 24010G20KT P6SM SCT070
     FM192100 03006KT P6SM SCT090
     FM200100 21006KT P6SM FEW100
     FM201500 VRB04KT P6SM SKC
      AMD LTD TO CLD VIS AND WIND=

USA.gov is the U.S. government's official web portal to all federal, state and local government web resources and services.